Time;durP1;ratioP1;P1;durP2;ratioP2;P2;SDS_P1;SDS_P2;PMS_P1;PMS_P2;Temp;Humidity;BMP_temperature;BMP_pressure;BME280_temperature;BME280_humidity;BME280_pressure;Samples;Min_cycle;Max_cycle;Signal;HPM_P1;HPM_P2
2023/07/16 00:01:48;;;;;;;6.10;2.73;;;;;;;;;;5016390;28;20765;-84
2023/07/16 00:04:14;;;;;;;6.03;2.57;;;;;;;;;;4998971;28;20404;-85
2023/07/16 00:06:40;;;;;;;4.43;3.23;;;;;;;;;;5015074;28;20910;-85
2023/07/16 00:09:06;;;;;;;4.17;2.80;;;;;;;;;;5016016;28;20410;-85
2023/07/16 00:11:32;;;;;;;3.40;2.50;;;;;;;;;;5016040;28;20402;-84
2023/07/16 00:13:58;;;;;;;5.10;2.80;;;;;;;;;;5014856;28;20469;-85
2023/07/16 00:16:24;;;;;;;4.03;2.73;;;;;;;;;;4998330;28;20438;-85
2023/07/16 00:18:50;;;;;;;3.70;1.93;;;;;;;;;;5015986;28;20381;-85
2023/07/16 00:21:16;;;;;;;2.90;2.30;;;;;;;;;;5014973;28;20472;-84
2023/07/16 00:23:42;;;;;;;2.43;2.10;;;;;;;;;;5014763;28;20401;-85
2023/07/16 00:26:08;;;;;;;6.00;2.53;;;;;;;;;;5014645;28;20388;-85
2023/07/16 00:28:34;;;;;;;12.43;2.50;;;;;;;;;;4997784;28;20767;-85
2023/07/16 00:31:01;;;;;;;3.40;2.67;;;;;;;;;;5014603;28;20442;-85
2023/07/16 00:33:27;;;;;;;7.60;2.47;;;;;;;;;;5014147;28;20494;-85
2023/07/16 00:35:53;;;;;;;3.03;1.80;;;;;;;;;;5015679;28;20406;-85
2023/07/16 00:38:19;;;;;;;10.27;2.37;;;;;;;;;;5014459;28;20447;-84
2023/07/16 00:40:46;;;;;;;3.60;2.40;;;;;;;;;;5015666;28;20377;-84
2023/07/16 00:43:12;;;;;;;3.83;2.40;;;;;;;;;;4998210;28;20917;-85
2023/07/16 00:45:38;;;;;;;2.87;2.13;;;;;;;;;;5015337;28;20406;-85
2023/07/16 00:48:06;;;;;;;4.30;2.17;;;;;;;;;;5015539;28;20421;-84
2023/07/16 00:50:36;;;;;;;3.93;2.27;;;;;;;;;;5015515;28;20381;-84
2023/07/16 00:53:02;;;;;;;3.70;2.20;;;;;;;;;;5014526;28;20505;-84
2023/07/16 00:55:30;;;;;;;4.90;2.13;;;;;;;;;;5015412;28;20413;-85
2023/07/16 00:58:01;;;;;;;4.43;2.87;;;;;;;;;;5013889;28;20552;-84
2023/07/16 01:00:27;;;;;;;5.77;2.57;;;;;;;;;;5015240;28;20402;-84
2023/07/16 01:02:53;;;;;;;4.63;2.67;;;;;;;;;;5014101;28;20420;-84
2023/07/16 01:05:19;;;;;;;3.23;1.93;;;;;;;;;;5015111;28;20435;-84
2023/07/16 01:07:51;;;;;;;4.50;2.30;;;;;;;;;;5015361;28;20808;-84
2023/07/16 01:10:17;;;;;;;3.63;2.00;;;;;;;;;;5013942;28;20893;-84
2023/07/16 01:12:43;;;;;;;5.40;2.40;;;;;;;;;;5013465;28;20436;-84
2023/07/16 01:15:09;;;;;;;3.87;2.83;;;;;;;;;;5013867;28;20410;-85
2023/07/16 01:17:35;;;;;;;3.33;1.80;;;;;;;;;;5014824;28;20417;-85
2023/07/16 01:20:01;;;;;;;2.13;1.80;;;;;;;;;;5013603;28;20797;-84
2023/07/16 01:22:31;;;;;;;21.23;3.00;;;;;;;;;;5013247;28;20458;-84
2023/07/16 01:25:15;;;;;;;5.37;2.10;;;;;;;;;;5013526;28;20911;-84
2023/07/16 01:27:41;;;;;;;6.77;2.10;;;;;;;;;;5013300;28;20418;-84
2023/07/16 01:30:09;;;;;;;3.57;1.93;;;;;;;;;;5014343;28;20437;-84
2023/07/16 01:32:36;;;;;;;4.27;2.23;;;;;;;;;;5014411;28;20867;-85
2023/07/16 01:35:03;;;;;;;3.57;1.83;;;;;;;;;;5014266;28;20389;-84
2023/07/16 01:37:29;;;;;;;5.23;2.00;;;;;;;;;;5013294;28;20418;-84
2023/07/16 01:39:55;;;;;;;4.87;1.87;;;;;;;;;;5013184;28;20416;-84
2023/07/16 01:42:21;;;;;;;3.40;1.70;;;;;;;;;;5014399;28;20410;-84
2023/07/16 01:44:47;;;;;;;5.10;2.40;;;;;;;;;;5014090;28;20872;-84
2023/07/16 01:47:19;;;;;;;3.90;2.07;;;;;;;;;;5013405;28;20448;-85
2023/07/16 01:49:46;;;;;;;5.53;1.97;;;;;;;;;;5014251;28;20387;-84
2023/07/16 01:52:12;;;;;;;9.13;2.23;;;;;;;;;;5013130;28;20432;-84
2023/07/16 01:54:38;;;;;;;5.60;2.17;;;;;;;;;;5014104;28;20385;-84
2023/07/16 01:57:05;;;;;;;3.40;1.50;;;;;;;;;;5012948;28;20397;-84
2023/07/16 01:59:31;;;;;;;3.63;1.87;;;;;;;;;;5014042;28;20397;-84
2023/07/16 02:01:57;;;;;;;11.57;2.03;;;;;;;;;;5013096;28;20406;-84
2023/07/16 02:04:23;;;;;;;6.20;2.00;;;;;;;;;;5014005;28;20467;-85
2023/07/16 02:06:49;;;;;;;3.20;1.70;;;;;;;;;;5014157;28;20454;-84
2023/07/16 02:09:15;;;;;;;7.07;2.50;;;;;;;;;;5014122;28;20410;-84
2023/07/16 02:11:41;;;;;;;5.83;2.07;;;;;;;;;;5013832;28;20477;-84
2023/07/16 02:14:07;;;;;;;4.37;1.83;;;;;;;;;;5012902;28;20465;-85
2023/07/16 02:16:33;;;;;;;5.50;2.23;;;;;;;;;;5013723;28;20406;-84
2023/07/16 02:18:59;;;;;;;3.50;1.87;;;;;;;;;;5014049;28;20450;-85
2023/07/16 02:21:25;;;;;;;5.17;1.70;;;;;;;;;;5012598;28;20406;-85
2023/07/16 02:23:51;;;;;;;4.73;1.77;;;;;;;;;;5012723;28;20406;-84
2023/07/16 02:26:17;;;;;;;7.43;2.10;;;;;;;;;;5013547;28;20380;-85
2023/07/16 02:28:43;;;;;;;3.43;1.73;;;;;;;;;;5013742;28;20389;-84
2023/07/16 02:31:09;;;;;;;3.50;1.63;;;;;;;;;;5013588;28;20798;-85
2023/07/16 02:33:35;;;;;;;10.63;2.03;;;;;;;;;;5012265;28;20529;-84
2023/07/16 02:36:01;;;;;;;5.30;2.00;;;;;;;;;;4995957;28;20428;-85
2023/07/16 02:38:27;;;;;;;4.47;1.77;;;;;;;;;;5012214;28;20420;-84
2023/07/16 02:40:53;;;;;;;8.20;1.73;;;;;;;;;;5013930;28;20410;-84
2023/07/16 02:43:19;;;;;;;5.20;1.63;;;;;;;;;;5013857;28;20406;-84
2023/07/16 02:45:45;;;;;;;9.97;2.03;;;;;;;;;;5013510;28;20413;-85
2023/07/16 02:48:11;;;;;;;3.70;1.80;;;;;;;;;;4996524;28;20421;-85
2023/07/16 02:50:38;;;;;;;5.23;1.87;;;;;;;;;;5012393;28;20413;-85
2023/07/16 02:53:05;;;;;;;3.27;1.97;;;;;;;;;;5012650;28;20543;-85
2023/07/16 02:55:31;;;;;;;5.93;1.87;;;;;;;;;;5012324;28;20384;-85
2023/07/16 02:57:57;;;;;;;4.20;1.63;;;;;;;;;;5013891;28;20793;-85
2023/07/16 03:00:23;;;;;;;4.53;2.00;;;;;;;;;;5013889;28;20861;-85
2023/07/16 03:02:49;;;;;;;5.63;1.80;;;;;;;;;;5013580;28;20444;-85
2023/07/16 03:05:19;;;;;;;3.73;2.13;;;;;;;;;;4996117;28;20392;-85
2023/07/16 03:07:45;;;;;;;4.30;2.00;;;;;;;;;;5013446;28;20417;-85
2023/07/16 03:10:11;;;;;;;5.53;2.30;;;;;;;;;;5013197;28;20769;-85
2023/07/16 03:12:37;;;;;;;3.03;1.83;;;;;;;;;;4995951;28;20465;-85
2023/07/16 03:15:03;;;;;;;6.17;1.77;;;;;;;;;;5012338;28;20407;-85
2023/07/16 03:17:29;;;;;;;5.50;2.20;;;;;;;;;;5011804;28;20429;-84
2023/07/16 03:19:55;;;;;;;3.40;1.83;;;;;;;;;;5012001;28;20405;-85
2023/07/16 03:22:21;;;;;;;3.73;2.00;;;;;;;;;;5012002;28;20430;-85
2023/07/16 03:24:47;;;;;;;3.47;2.00;;;;;;;;;;5013142;28;20396;-85
2023/07/16 03:27:13;;;;;;;3.10;1.90;;;;;;;;;;5013549;28;20757;-84
2023/07/16 03:29:39;;;;;;;6.17;1.90;;;;;;;;;;4995603;28;20412;-84
2023/07/16 03:32:05;;;;;;;3.57;2.20;;;;;;;;;;5012054;28;20422;-84
2023/07/16 03:34:31;;;;;;;6.33;2.07;;;;;;;;;;5012972;28;20975;-84
2023/07/16 03:36:57;;;;;;;3.80;2.00;;;;;;;;;;5012259;28;20497;-85
2023/07/16 03:39:23;;;;;;;7.40;2.57;;;;;;;;;;5013071;28;20876;-84
2023/07/16 03:41:49;;;;;;;7.30;2.07;;;;;;;;;;5013633;28;20421;-84
2023/07/16 03:44:15;;;;;;;7.20;2.17;;;;;;;;;;4999319;28;20400;-85
2023/07/16 03:46:41;;;;;;;7.63;2.27;;;;;;;;;;4999257;28;20754;-85
2023/07/16 03:49:08;;;;;;;6.07;2.37;;;;;;;;;;5015501;28;20429;-85
2023/07/16 03:51:34;;;;;;;7.27;2.27;;;;;;;;;;5016417;28;20436;-85
2023/07/16 03:54:00;;;;;;;10.50;2.20;;;;;;;;;;5016745;28;20452;-85
2023/07/16 03:56:27;;;;;;;3.10;2.13;;;;;;;;;;5016313;28;20385;-85
2023/07/16 03:58:53;;;;;;;4.50;2.20;;;;;;;;;;5015017;28;20470;-85
2023/07/16 04:01:19;;;;;;;3.20;2.17;;;;;;;;;;5015263;28;20481;-85
2023/07/16 04:03:45;;;;;;;7.30;2.77;;;;;;;;;;4998923;28;20842;-85
2023/07/16 04:06:11;;;;;;;7.13;2.37;;;;;;;;;;5015180;28;20407;-85
2023/07/16 04:08:38;;;;;;;6.93;3.17;;;;;;;;;;5014770;28;20414;-85
2023/07/16 04:11:05;;;;;;;3.47;1.87;;;;;;;;;;5014973;28;20414;-85
2023/07/16 04:13:32;;;;;;;4.13;2.40;;;;;;;;;;5015841;28;20850;-85
2023/07/16 04:15:58;;;;;;;2.20;1.90;;;;;;;;;;5016195;28;20410;-85
2023/07/16 04:18:24;;;;;;;8.93;2.90;;;;;;;;;;5016130;28;20410;-85
2023/07/16 04:20:51;;;;;;;5.60;2.43;;;;;;;;;;5014576;28;20414;-85
2023/07/16 04:23:17;;;;;;;6.90;2.40;;;;;;;;;;5015747;28;20407;-85
2023/07/16 04:25:43;;;;;;;4.33;2.07;;;;;;;;;;5019283;28;20471;-85
2023/07/16 04:28:09;;;;;;;5.60;2.70;;;;;;;;;;5016236;28;20418;-85
2023/07/16 04:30:37;;;;;;;5.70;2.00;;;;;;;;;;5015886;28;20409;-85
2023/07/16 04:33:03;;;;;;;7.10;2.30;;;;;;;;;;4998745;28;21353;-84
2023/07/16 04:35:29;;;;;;;10.90;3.20;;;;;;;;;;5015700;28;20777;-84
2023/07/16 04:37:55;;;;;;;5.17;2.30;;;;;;;;;;5015368;28;20417;-83
2023/07/16 04:40:21;;;;;;;4.90;2.73;;;;;;;;;;5015822;28;20475;-83
2023/07/16 04:42:47;;;;;;;4.53;2.40;;;;;;;;;;4998271;28;20524;-83
2023/07/16 04:45:13;;;;;;;6.73;2.80;;;;;;;;;;5014412;28;20410;-84
2023/07/16 04:47:39;;;;;;;6.33;2.53;;;;;;;;;;4997914;28;20391;-84
2023/07/16 04:50:05;;;;;;;6.17;2.27;;;;;;;;;;5014189;28;20454;-84
2023/07/16 04:52:31;;;;;;;7.77;2.77;;;;;;;;;;4997620;28;20410;-83
2023/07/16 04:54:57;;;;;;;7.07;3.23;;;;;;;;;;5015599;28;20410;-83
2023/07/16 04:57:24;;;;;;;5.63;2.47;;;;;;;;;;5014246;28;20527;-86
2023/07/16 04:59:50;;;;;;;12.70;2.70;;;;;;;;;;5014308;28;20421;-84
2023/07/16 05:02:17;;;;;;;6.33;2.73;;;;;;;;;;5015583;28;20385;-84
2023/07/16 05:04:48;;;;;;;8.43;3.57;;;;;;;;;;4997292;28;20417;-83
2023/07/16 05:07:14;;;;;;;6.20;3.70;;;;;;;;;;5014123;28;20421;-85
2023/07/16 05:09:40;;;;;;;6.53;2.77;;;;;;;;;;5030197;28;20766;-83
2023/07/16 05:12:07;;;;;;;8.07;2.70;;;;;;;;;;5034106;28;20408;-84
2023/07/16 05:14:43;;;;;;;7.10;3.50;;;;;;;;;;5032574;28;20443;-84
2023/07/16 05:17:09;;;;;;;8.67;2.90;;;;;;;;;;5032955;28;20413;-83
2023/07/16 05:19:35;;;;;;;6.93;3.00;;;;;;;;;;5034565;28;20421;-84
2023/07/16 05:22:01;;;;;;;4.47;3.30;;;;;;;;;;5034348;28;20417;-84
2023/07/16 05:24:27;;;;;;;4.30;2.63;;;;;;;;;;5035083;28;20421;-83
2023/07/16 05:26:54;;;;;;;6.37;2.90;;;;;;;;;;5034421;28;20943;-84
2023/07/16 05:29:20;;;;;;;6.90;3.10;;;;;;;;;;5034627;28;20409;-83
2023/07/16 05:31:46;;;;;;;5.83;3.27;;;;;;;;;;5034470;28;20476;-83
2023/07/16 05:34:12;;;;;;;6.00;2.70;;;;;;;;;;5016898;28;20469;-83
2023/07/16 05:36:39;;;;;;;5.80;3.13;;;;;;;;;;5033131;28;20420;-84
2023/07/16 05:39:05;;;;;;;5.30;3.70;;;;;;;;;;5034677;28;20376;-83
2023/07/16 05:41:31;;;;;;;7.80;3.70;;;;;;;;;;5033337;28;20475;-83
2023/07/16 05:43:57;;;;;;;6.60;3.57;;;;;;;;;;5032877;28;20400;-83
2023/07/16 05:46:23;;;;;;;6.27;3.60;;;;;;;;;;5034458;28;20754;-83
2023/07/16 05:48:49;;;;;;;9.93;4.00;;;;;;;;;;5033922;28;20773;-83
2023/07/16 05:51:15;;;;;;;6.43;3.57;;;;;;;;;;5033403;28;20380;-83
2023/07/16 05:53:41;;;;;;;7.23;3.93;;;;;;;;;;5016497;28;20443;-83
2023/07/16 05:56:07;;;;;;;7.50;4.47;;;;;;;;;;5033236;28;20387;-83
2023/07/16 05:58:33;;;;;;;13.87;4.00;;;;;;;;;;5032740;28;20476;-83
2023/07/16 06:00:59;;;;;;;9.03;4.10;;;;;;;;;;5032517;28;20783;-83
2023/07/16 06:03:25;;;;;;;5.60;4.03;;;;;;;;;;5033044;28;20405;-83
2023/07/16 06:05:51;;;;;;;6.33;4.00;;;;;;;;;;5032696;28;20391;-84
2023/07/16 06:08:17;;;;;;;8.83;4.00;;;;;;;;;;5032917;28;20412;-83
2023/07/16 06:10:43;;;;;;;5.40;4.40;;;;;;;;;;5033775;28;20387;-84
2023/07/16 06:13:09;;;;;;;9.30;4.73;;;;;;;;;;5032841;28;20435;-83
2023/07/16 06:15:36;;;;;;;4.93;3.77;;;;;;;;;;5033988;28;20384;-84
2023/07/16 06:18:02;;;;;;;5.90;4.03;;;;;;;;;;5032543;28;20483;-83
2023/07/16 06:20:28;;;;;;;7.93;4.10;;;;;;;;;;5032845;28;20509;-83
2023/07/16 06:22:54;;;;;;;11.07;4.87;;;;;;;;;;5032396;28;20407;-83
2023/07/16 06:25:22;;;;;;;8.63;4.80;;;;;;;;;;5033844;28;20510;-83
2023/07/16 06:27:48;;;;;;;10.07;4.47;;;;;;;;;;5034150;28;20391;-83
2023/07/16 06:30:14;;;;;;;18.73;5.07;;;;;;;;;;5033704;28;20467;-83
2023/07/16 06:32:40;;;;;;;8.60;4.87;;;;;;;;;;5032238;28;20464;-83
2023/07/16 06:35:06;;;;;;;8.20;4.90;;;;;;;;;;5032500;28;20428;-84
2023/07/16 06:37:32;;;;;;;7.97;4.67;;;;;;;;;;5016061;28;20417;-84
2023/07/16 06:39:58;;;;;;;9.30;4.10;;;;;;;;;;5015768;28;20421;-83
2023/07/16 06:42:24;;;;;;;4.33;3.87;;;;;;;;;;5032255;28;20409;-84
2023/07/16 06:44:50;;;;;;;5.40;4.17;;;;;;;;;;5033166;28;20392;-84
2023/07/16 06:47:16;;;;;;;9.37;4.10;;;;;;;;;;5032687;28;20397;-85
2023/07/16 06:49:42;;;;;;;7.13;5.00;;;;;;;;;;5033115;28;20372;-84
2023/07/16 06:52:08;;;;;;;9.43;5.00;;;;;;;;;;5016105;28;20417;-84
2023/07/16 06:54:34;;;;;;;10.60;4.67;;;;;;;;;;5032152;28;20428;-83
2023/07/16 06:57:00;;;;;;;10.07;4.67;;;;;;;;;;5031712;28;20531;-84
2023/07/16 06:59:26;;;;;;;6.90;4.37;;;;;;;;;;5015475;28;20472;-84
2023/07/16 07:01:52;;;;;;;8.03;4.30;;;;;;;;;;5031986;28;20400;-83
2023/07/16 07:04:18;;;;;;;9.20;5.17;;;;;;;;;;5033348;28;20388;-84
2023/07/16 07:06:44;;;;;;;7.97;4.40;;;;;;;;;;5015213;28;20419;-84
2023/07/16 07:09:10;;;;;;;10.07;4.43;;;;;;;;;;5032251;28;20401;-84
2023/07/16 07:11:36;;;;;;;8.13;4.87;;;;;;;;;;5015819;28;20747;-84
2023/07/16 07:14:02;;;;;;;9.37;4.97;;;;;;;;;;5032568;28;20960;-82
2023/07/16 07:16:28;;;;;;;6.50;4.43;;;;;;;;;;5035516;28;20383;-83
2023/07/16 07:18:54;;;;;;;11.33;4.70;;;;;;;;;;5037027;28;20371;-84
2023/07/16 07:21:20;;;;;;;9.20;4.40;;;;;;;;;;5035677;28;20486;-84
2023/07/16 07:23:46;;;;;;;9.60;4.83;;;;;;;;;;5035562;28;20448;-84
2023/07/16 07:26:12;;;;;;;6.33;4.30;;;;;;;;;;5037084;28;20386;-84
2023/07/16 07:28:38;;;;;;;6.33;4.80;;;;;;;;;;5019157;28;20441;-84
2023/07/16 07:31:04;;;;;;;7.83;4.70;;;;;;;;;;5018991;28;20782;-84
2023/07/16 07:33:32;;;;;;;5.40;4.13;;;;;;;;;;5036826;28;20894;-84
2023/07/16 07:35:58;;;;;;;6.83;4.60;;;;;;;;;;5035474;28;20435;-84
2023/07/16 07:38:24;;;;;;;5.53;4.00;;;;;;;;;;5035921;28;20937;-85
2023/07/16 07:40:50;;;;;;;8.17;4.40;;;;;;;;;;5035362;28;20409;-83
2023/07/16 07:43:16;;;;;;;6.30;4.67;;;;;;;;;;5036985;28;20375;-84
2023/07/16 07:45:42;;;;;;;5.53;4.40;;;;;;;;;;5035067;28;20416;-85
2023/07/16 07:48:08;;;;;;;11.20;4.47;;;;;;;;;;5036582;28;20396;-84
2023/07/16 07:50:34;;;;;;;9.23;5.27;;;;;;;;;;5035383;28;20401;-83
2023/07/16 07:53:00;;;;;;;7.93;4.23;;;;;;;;;;5034896;28;20856;-83
2023/07/16 07:55:26;;;;;;;7.33;4.10;;;;;;;;;;5035745;28;20409;-86
2023/07/16 07:57:52;;;;;;;8.20;3.20;;;;;;;;;;5018392;28;20533;-83
2023/07/16 08:00:18;;;;;;;7.50;3.43;;;;;;;;;;5037184;28;20379;-84
2023/07/16 08:02:44;;;;;;;6.67;4.77;;;;;;;;;;5018546;28;20792;-85
2023/07/16 08:05:10;;;;;;;6.67;3.60;;;;;;;;;;5035023;28;20395;-82
2023/07/16 08:07:36;;;;;;;6.20;3.90;;;;;;;;;;5018491;28;20421;-83
2023/07/16 08:10:03;;;;;;;5.87;3.57;;;;;;;;;;5034903;28;20440;-83
2023/07/16 08:12:30;;;;;;;2.97;2.67;;;;;;;;;;5036138;28;20388;-85
2023/07/16 08:14:56;;;;;;;6.03;2.47;;;;;;;;;;5018509;28;20438;-85
2023/07/16 08:17:22;;;;;;;5.00;3.10;;;;;;;;;;5036142;28;20766;-86
2023/07/16 08:19:48;;;;;;;9.73;3.63;;;;;;;;;;5034920;28;20405;-85
2023/07/16 08:22:14;;;;;;;5.37;4.00;;;;;;;;;;5034583;28;20413;-85
2023/07/16 08:24:40;;;;;;;4.50;3.40;;;;;;;;;;5034630;28;20420;-85
2023/07/16 08:27:06;;;;;;;8.63;3.73;;;;;;;;;;5017374;28;20439;-86
2023/07/16 08:29:32;;;;;;;4.67;3.90;;;;;;;;;;5035732;28;20479;-86
2023/07/16 08:31:58;;;;;;;3.90;2.90;;;;;;;;;;5035497;28;20422;-87
2023/07/16 08:34:24;;;;;;;9.00;3.93;;;;;;;;;;5034578;28;20840;-87
2023/07/16 08:36:50;;;;;;;4.10;3.10;;;;;;;;;;5035335;28;20500;-85
2023/07/16 08:39:19;;;;;;;5.03;3.20;;;;;;;;;;5018314;28;20409;-84
2023/07/16 08:41:45;;;;;;;3.80;3.17;;;;;;;;;;5035012;28;20749;-84
2023/07/16 08:44:12;;;;;;;10.10;3.30;;;;;;;;;;5034433;28;20416;-85
2023/07/16 08:46:38;;;;;;;7.30;3.63;;;;;;;;;;5034500;28;20401;-85
2023/07/16 08:49:06;;;;;;;5.00;3.60;;;;;;;;;;5035416;28;20405;-84
2023/07/16 08:51:32;;;;;;;5.10;3.37;;;;;;;;;;5035592;28;20437;-86
2023/07/16 08:53:58;;;;;;;4.90;3.00;;;;;;;;;;5034940;28;20814;-85
2023/07/16 08:56:25;;;;;;;7.57;2.70;;;;;;;;;;5017952;28;20522;-85
2023/07/16 08:58:51;;;;;;;4.50;3.23;;;;;;;;;;5035162;28;20464;-86
2023/07/16 09:01:18;;;;;;;9.50;3.03;;;;;;;;;;5035183;28;20412;-84
2023/07/16 09:03:44;;;;;;;5.97;3.20;;;;;;;;;;5017987;28;20427;-86
2023/07/16 09:06:10;;;;;;;5.00;2.97;;;;;;;;;;5033469;28;20417;-85
2023/07/16 09:08:36;;;;;;;5.20;3.20;;;;;;;;;;5017301;28;20459;-84
2023/07/16 09:11:02;;;;;;;5.07;2.90;;;;;;;;;;5034486;28;20409;-85
2023/07/16 09:13:29;;;;;;;4.27;2.87;;;;;;;;;;5034003;28;20456;-85
2023/07/16 09:15:56;;;;;;;4.40;2.90;;;;;;;;;;5034747;28;20502;-85
2023/07/16 09:18:23;;;;;;;4.70;3.23;;;;;;;;;;5033642;28;20408;-85
2023/07/16 09:20:56;;;;;;;3.20;2.57;;;;;;;;;;5016980;28;20503;-84
2023/07/16 09:23:24;;;;;;;3.80;2.83;;;;;;;;;;5034812;28;20412;-85
2023/07/16 09:25:50;;;;;;;3.97;3.10;;;;;;;;;;5033198;28;20413;-85
2023/07/16 09:28:19;;;;;;;4.33;3.07;;;;;;;;;;5033502;28;20429;-85
2023/07/16 09:30:45;;;;;;;5.30;3.13;;;;;;;;;;5033343;28;20417;-84
2023/07/16 09:33:14;;;;;;;5.30;3.13;;;;;;;;;;5033741;28;20960;-85
2023/07/16 09:35:40;;;;;;;4.50;2.47;;;;;;;;;;5035229;28;20474;-83
2023/07/16 09:38:06;;;;;;;5.03;2.80;;;;;;;;;;5034839;28;20756;-84
2023/07/16 09:40:32;;;;;;;3.27;2.90;;;;;;;;;;5033450;28;20470;-84
2023/07/16 09:42:59;;;;;;;4.57;2.77;;;;;;;;;;5032838;28;20429;-84
2023/07/16 09:45:25;;;;;;;4.10;3.00;;;;;;;;;;5034186;28;20741;-84
2023/07/16 09:47:51;;;;;;;2.60;2.40;;;;;;;;;;5016793;28;20867;-83
2023/07/16 09:50:17;;;;;;;3.23;2.67;;;;;;;;;;5034239;28;20410;-83
2023/07/16 09:52:43;;;;;;;5.20;2.63;;;;;;;;;;5016673;28;20438;-84
2023/07/16 09:55:10;;;;;;;2.97;2.67;;;;;;;;;;5016321;28;20421;-83
2023/07/16 09:57:37;;;;;;;2.87;2.67;;;;;;;;;;5033760;28;20490;-84
2023/07/16 10:00:05;;;;;;;3.47;2.33;;;;;;;;;;5033504;28;21011;-83
2023/07/16 10:02:35;;;;;;;14.20;3.17;;;;;;;;;;5033797;28;20405;-84
2023/07/16 10:05:11;;;;;;;3.37;2.70;;;;;;;;;;5033726;28;20401;-84
2023/07/16 10:07:37;;;;;;;6.60;2.70;;;;;;;;;;5034232;28;20393;-83
2023/07/16 10:10:08;;;;;;;3.80;2.80;;;;;;;;;;5032185;28;20776;-84
2023/07/16 10:12:35;;;;;;;3.63;2.77;;;;;;;;;;5033926;28;20400;-83
2023/07/16 10:15:04;;;;;;;4.77;2.60;;;;;;;;;;5016064;28;20451;-84
2023/07/16 10:17:30;;;;;;;6.20;3.50;;;;;;;;;;5032731;28;20408;-83
2023/07/16 10:20:01;;;;;;;3.13;2.53;;;;;;;;;;5032305;28;20425;-84
2023/07/16 10:22:33;;;;;;;4.60;2.70;;;;;;;;;;5034038;28;20406;-83
2023/07/16 10:25:00;;;;;;;3.70;2.97;;;;;;;;;;5032210;28;20416;-84
2023/07/16 10:27:33;;;;;;;3.60;3.07;;;;;;;;;;5033335;28;20428;-83
2023/07/16 10:30:02;;;;;;;3.50;2.67;;;;;;;;;;5033244;28;20401;-84
2023/07/16 10:32:29;;;;;;;3.77;3.07;;;;;;;;;;5033898;28;20415;-84
2023/07/16 10:34:55;;;;;;;3.33;2.77;;;;;;;;;;5033761;28;20413;-84
2023/07/16 10:37:21;;;;;;;3.37;2.73;;;;;;;;;;5033841;28;20408;-84
2023/07/16 10:39:51;;;;;;;3.80;3.20;;;;;;;;;;5033215;28;20397;-85
2023/07/16 10:42:17;;;;;;;6.73;2.90;;;;;;;;;;5033531;28;20492;-84
2023/07/16 10:44:43;;;;;;;2.90;2.60;;;;;;;;;;5033646;28;20413;-84
2023/07/16 10:47:10;;;;;;;4.93;3.10;;;;;;;;;;5033358;28;20441;-83
2023/07/16 10:49:36;;;;;;;3.43;3.10;;;;;;;;;;5032026;28;20774;-83
2023/07/16 10:52:03;;;;;;;4.90;2.93;;;;;;;;;;5035072;28;20921;-84
2023/07/16 10:54:29;;;;;;;4.37;2.60;;;;;;;;;;5037595;28;20459;-84
2023/07/16 10:56:55;;;;;;;2.97;2.27;;;;;;;;;;5019909;28;20787;-84
2023/07/16 10:59:21;;;;;;;3.53;2.77;;;;;;;;;;5036214;28;20467;-84
2023/07/16 11:01:47;;;;;;;4.50;2.90;;;;;;;;;;5036301;28;20416;-84
2023/07/16 11:04:13;;;;;;;8.40;3.27;;;;;;;;;;5035991;28;20877;-85
2023/07/16 11:06:39;;;;;;;4.50;3.40;;;;;;;;;;5035771;28;20412;-84
2023/07/16 11:09:11;;;;;;;8.87;3.80;;;;;;;;;;5037160;28;20404;-84
2023/07/16 11:11:38;;;;;;;3.80;2.60;;;;;;;;;;5035932;28;20456;-84
2023/07/16 11:14:05;;;;;;;4.10;2.43;;;;;;;;;;5036946;28;20431;-84
2023/07/16 11:16:35;;;;;;;5.53;2.90;;;;;;;;;;5038300;28;20415;-84
2023/07/16 11:19:02;;;;;;;5.10;3.30;;;;;;;;;;5040322;28;20397;-85
2023/07/16 11:21:28;;;;;;;3.27;2.37;;;;;;;;;;5039987;28;20412;-84
2023/07/16 11:23:54;;;;;;;4.03;3.03;;;;;;;;;;5036974;28;20874;-83
2023/07/16 11:26:20;;;;;;;6.20;3.20;;;;;;;;;;5036144;28;20494;-84
2023/07/16 11:28:46;;;;;;;4.37;2.83;;;;;;;;;;5037391;28;20409;-85
2023/07/16 11:31:14;;;;;;;6.40;2.70;;;;;;;;;;5035612;28;20431;-84
2023/07/16 11:33:42;;;;;;;3.20;2.83;;;;;;;;;;5036829;28;20460;-84
2023/07/16 11:36:08;;;;;;;4.47;3.20;;;;;;;;;;5036971;28;20405;-84
2023/07/16 11:38:38;;;;;;;4.17;2.53;;;;;;;;;;5019672;28;20413;-84
2023/07/16 11:41:04;;;;;;;3.57;2.47;;;;;;;;;;5035170;28;20383;-84
2023/07/16 11:43:35;;;;;;;4.30;3.60;;;;;;;;;;5035493;28;20431;-84
2023/07/16 11:46:01;;;;;;;6.33;2.70;;;;;;;;;;5035248;28;20412;-85
2023/07/16 11:48:27;;;;;;;4.00;2.47;;;;;;;;;;5036795;28;20415;-86
2023/07/16 11:50:53;;;;;;;3.50;2.77;;;;;;;;;;5035444;28;20935;-85
2023/07/16 11:53:19;;;;;;;2.63;2.27;;;;;;;;;;5036232;28;20557;-83
2023/07/16 11:55:45;;;;;;;4.10;2.43;;;;;;;;;;5019299;28;20459;-85
2023/07/16 11:58:11;;;;;;;2.70;2.50;;;;;;;;;;5034534;28;20469;-85
2023/07/16 12:00:37;;;;;;;4.00;3.37;;;;;;;;;;5036494;28;20409;-84
2023/07/16 12:03:03;;;;;;;5.43;3.13;;;;;;;;;;5033888;28;20405;-85
2023/07/16 12:05:29;;;;;;;4.03;3.07;;;;;;;;;;5034882;28;20505;-86
2023/07/16 12:07:55;;;;;;;4.47;3.10;;;;;;;;;;5035099;28;20413;-85
2023/07/16 12:10:21;;;;;;;3.33;2.80;;;;;;;;;;5018093;28;20410;-84
2023/07/16 12:12:47;;;;;;;4.10;3.30;;;;;;;;;;5036120;28;20403;-84
2023/07/16 12:15:13;;;;;;;5.43;3.63;;;;;;;;;;5034637;28;20463;-84
2023/07/16 12:17:39;;;;;;;4.33;3.20;;;;;;;;;;5036771;28;20882;-85
2023/07/16 12:20:05;;;;;;;7.37;3.40;;;;;;;;;;5037778;28;20413;-85
2023/07/16 12:22:31;;;;;;;5.70;3.47;;;;;;;;;;5036033;28;20425;-85
2023/07/16 12:24:57;;;;;;;5.07;3.10;;;;;;;;;;5036028;28;20420;-85
2023/07/16 12:27:23;;;;;;;5.70;2.93;;;;;;;;;;5034522;28;20417;-84
2023/07/16 12:29:49;;;;;;;4.33;3.00;;;;;;;;;;5018068;28;20417;-84
2023/07/16 12:32:15;;;;;;;4.50;3.20;;;;;;;;;;5034248;28;20413;-86
2023/07/16 12:34:41;;;;;;;3.50;2.40;;;;;;;;;;5035668;28;20822;-85
2023/07/16 12:37:07;;;;;;;4.57;3.00;;;;;;;;;;5035421;28;20416;-85
2023/07/16 12:39:33;;;;;;;4.23;2.40;;;;;;;;;;5035542;28;20401;-86
2023/07/16 12:41:59;;;;;;;4.10;2.73;;;;;;;;;;5035393;28;20403;-86
2023/07/16 12:44:25;;;;;;;4.83;3.10;;;;;;;;;;5034100;28;20515;-85
2023/07/16 12:46:51;;;;;;;3.87;3.10;;;;;;;;;;5034042;28;20412;-87
2023/07/16 12:49:18;;;;;;;4.83;3.40;;;;;;;;;;5017508;28;20417;-85
2023/07/16 12:51:44;;;;;;;5.20;3.30;;;;;;;;;;5035187;28;20421;-86
2023/07/16 12:54:10;;;;;;;5.30;3.30;;;;;;;;;;5017288;28;20472;-84
2023/07/16 12:56:36;;;;;;;4.60;3.20;;;;;;;;;;5034930;28;20413;-85
2023/07/16 12:59:03;;;;;;;3.60;3.23;;;;;;;;;;5017395;28;20518;-86
2023/07/16 13:01:30;;;;;;;4.00;2.90;;;;;;;;;;5035202;28;20743;-84
2023/07/16 13:03:56;;;;;;;4.00;3.00;;;;;;;;;;5033894;28;20424;-84
2023/07/16 13:06:22;;;;;;;3.00;2.40;;;;;;;;;;5034328;28;20416;-84
2023/07/16 13:08:48;;;;;;;4.00;2.90;;;;;;;;;;5033873;28;20471;-85
2023/07/16 13:11:14;;;;;;;3.87;2.67;;;;;;;;;;5033800;28;20421;-85
2023/07/16 13:13:42;;;;;;;6.50;3.23;;;;;;;;;;5033996;28;20552;-84
2023/07/16 13:16:08;;;;;;;2.60;2.10;;;;;;;;;;5035373;28;20413;-84
2023/07/16 13:18:34;;;;;;;4.23;3.10;;;;;;;;;;5036345;28;20471;-85
2023/07/16 13:21:00;;;;;;;4.37;2.40;;;;;;;;;;5034427;28;20397;-84
2023/07/16 13:23:26;;;;;;;3.60;2.47;;;;;;;;;;5034628;28;20395;-84
2023/07/16 13:25:52;;;;;;;4.63;2.60;;;;;;;;;;5016860;28;20435;-84
2023/07/16 13:28:18;;;;;;;3.77;2.63;;;;;;;;;;5034512;28;20525;-85
2023/07/16 13:30:44;;;;;;;5.27;2.60;;;;;;;;;;5033458;28;20408;-84
2023/07/16 13:33:10;;;;;;;4.70;2.97;;;;;;;;;;5032879;28;20452;-85
2023/07/16 13:35:36;;;;;;;2.70;2.50;;;;;;;;;;5032962;28;20412;-84
2023/07/16 13:38:02;;;;;;;3.90;2.90;;;;;;;;;;5033058;28;20417;-85
2023/07/16 13:40:28;;;;;;;4.40;2.97;;;;;;;;;;5034757;28;20866;-84
2023/07/16 13:42:55;;;;;;;4.60;2.57;;;;;;;;;;5034774;28;20444;-85
2023/07/16 13:45:30;;;;;;;3.60;3.07;;;;;;;;;;5016671;28;20588;-84
2023/07/16 13:47:56;;;;;;;4.13;2.37;;;;;;;;;;5033036;28;20414;-85
2023/07/16 13:50:22;;;;;;;4.87;2.40;;;;;;;;;;5034629;28;20421;-85
2023/07/16 13:52:48;;;;;;;3.23;2.27;;;;;;;;;;5032974;28;20432;-84
2023/07/16 13:55:14;;;;;;;3.23;2.13;;;;;;;;;;5034006;28;20413;-85
2023/07/16 13:57:40;;;;;;;5.50;3.17;;;;;;;;;;5032648;28;20485;-85
2023/07/16 14:00:09;;;;;;;3.33;2.77;;;;;;;;;;5032923;28;20766;-85
2023/07/16 14:02:35;;;;;;;9.23;7.13;;;;;;;;;;5033024;28;20464;-85
2023/07/16 14:05:01;;;;;;;4.27;2.87;;;;;;;;;;5032964;28;20500;-84
2023/07/16 14:07:27;;;;;;;7.97;3.37;;;;;;;;;;5016318;28;20847;-84
2023/07/16 14:09:53;;;;;;;11.60;3.10;;;;;;;;;;5032807;28;20452;-86
2023/07/16 14:12:19;;;;;;;4.50;2.90;;;;;;;;;;5034680;28;20413;-85
2023/07/16 14:14:45;;;;;;;6.00;2.63;;;;;;;;;;5033222;28;20810;-83
2023/07/16 14:17:11;;;;;;;3.53;2.40;;;;;;;;;;5034713;28;20933;-85
2023/07/16 14:19:37;;;;;;;2.63;2.20;;;;;;;;;;5018625;28;20413;-85
2023/07/16 14:22:05;;;;;;;3.97;2.60;;;;;;;;;;5032961;28;20624;-86
2023/07/16 14:24:31;;;;;;;4.43;3.10;;;;;;;;;;5034442;28;20826;-85
2023/07/16 14:27:00;;;;;;;4.33;2.70;;;;;;;;;;5032975;28;20421;-85
2023/07/16 14:29:27;;;;;;;4.00;2.40;;;;;;;;;;5033632;28;21233;-85
2023/07/16 14:31:53;;;;;;;3.23;2.37;;;;;;;;;;5033904;28;20409;-85
2023/07/16 14:34:19;;;;;;;5.27;3.23;;;;;;;;;;5032176;28;20822;-86
2023/07/16 14:36:46;;;;;;;5.13;2.70;;;;;;;;;;5015995;28;20429;-85
2023/07/16 14:39:12;;;;;;;4.33;3.10;;;;;;;;;;5032549;28;20921;-86